Aviation Digital Data Service (ADDS)

Output produced by METARs form (2117 UTC 06 December 2019)
found at http://www.aviationweather.gov/metar/data/
 
Forecast for: PHNL (HONOLULU , HI, US)
Text: PHNL 062103Z 0621/0724 06012G19KT P6SM SCT030 BKN045
Forecast period: 2100 UTC 06 December 2019 to 0600 UTC 07 December 2019
Forecast type: FROM: standard forecast or significant change
Winds: from the ENE (60 degrees) at 14 MPH (12 knots; 6.2 m/s)
gusting to 22 MPH (19 knots; 9.8 m/s)
Visibility: 6 or more miles 10+ km)
Ceiling: 4500 feet AGL
Clouds: scattered clouds at 3000 feet AGL
broken clouds at 4500 feet AGL
Weather: no significant weather forecast for this period
Text: FM070600 06007KT P6SM SCT025 SCT045
Forecast period: 0600 UTC 07 December 2019 to 0000 UTC 08 December 2019
Forecast type: FROM: standard forecast or significant change
Winds: from the ENE (60 degrees) at 8 MPH (7 knots; 3.6 m/s)
Visibility: 6 or more miles 10+ km)
Ceiling: at least 12,000 feet AGL
Clouds: scattered clouds at 2500 feet AGL
scattered clouds at 4500 feet AGL
Weather: no significant weather forecast for this period